createdAt,value
2019-03-12T00:00:55.714Z,9.40
2019-03-12T00:03:25.097Z,10.57
2019-03-12T00:05:54.506Z,17.57
2019-03-12T00:08:23.856Z,18.20
2019-03-12T00:10:53.198Z,16.23
2019-03-12T00:13:22.558Z,14.83
2019-03-12T00:15:51.923Z,13.33
2019-03-12T00:18:21.320Z,7.13
2019-03-12T00:20:50.688Z,14.80
2019-03-12T00:23:20.058Z,17.27
2019-03-12T00:25:49.527Z,17.03
2019-03-12T00:28:18.879Z,11.23
2019-03-12T00:30:48.258Z,8.90
2019-03-12T00:33:17.802Z,15.53
2019-03-12T00:35:47.218Z,10.93
2019-03-12T00:38:16.610Z,11.37
2019-03-12T00:40:46.030Z,15.63
2019-03-12T00:43:15.428Z,16.63
2019-03-12T00:45:44.850Z,12.67
2019-03-12T00:48:14.415Z,13.70
2019-03-12T00:50:43.794Z,7.47
2019-03-12T00:53:13.093Z,10.57
2019-03-12T00:55:42.472Z,12.33
2019-03-12T00:58:11.794Z,10.30
2019-03-12T01:00:41.189Z,6.43
2019-03-12T01:03:10.706Z,6.73
2019-03-12T01:05:39.998Z,12.03
2019-03-12T01:08:09.358Z,10.83
2019-03-12T01:10:38.765Z,7.40
2019-03-12T01:13:26.297Z,6.83
2019-03-12T01:15:55.669Z,8.77
2019-03-12T01:18:25.078Z,12.10
2019-03-12T01:20:54.473Z,6.70
2019-03-12T01:23:23.911Z,6.60
2019-03-12T01:25:53.293Z,6.60
2019-03-12T01:28:22.686Z,7.73
2019-03-12T01:30:52.036Z,11.37
2019-03-12T01:33:21.548Z,6.07
2019-03-12T01:35:51.011Z,12.17
2019-03-12T01:38:20.397Z,9.03
2019-03-12T01:40:49.802Z,10.47
2019-03-12T01:43:19.138Z,4.53
2019-03-12T01:45:48.509Z,5.70
2019-03-12T01:48:17.839Z,5.47
2019-03-12T01:50:47.284Z,7.17
2019-03-12T01:53:16.985Z,9.73
2019-03-12T01:55:46.362Z,11.73
2019-03-12T01:58:15.754Z,11.57
2019-03-12T02:00:45.282Z,10.67
2019-03-12T02:03:14.715Z,4.60
2019-03-12T02:05:44.078Z,12.77
2019-03-12T02:08:13.425Z,6.23
2019-03-12T02:10:42.864Z,9.33
2019-03-12T02:13:12.234Z,9.73
2019-03-12T02:15:41.575Z,10.93
2019-03-12T02:18:10.930Z,10.73
2019-03-12T02:20:40.322Z,9.57
2019-03-12T02:23:09.675Z,12.33
2019-03-12T02:25:39.031Z,9.77
2019-03-12T02:28:08.378Z,5.87
2019-03-12T02:30:37.721Z,5.00
2019-03-12T02:33:07.327Z,6.47
2019-03-12T02:35:36.902Z,5.10
2019-03-12T02:38:06.262Z,5.47
2019-03-12T02:40:35.767Z,9.37
2019-03-12T02:43:05.440Z,7.43
2019-03-12T02:45:34.867Z,8.00
2019-03-12T02:48:04.357Z,4.77
2019-03-12T02:50:34.064Z,5.17
2019-03-12T02:53:03.536Z,9.70
2019-03-12T02:55:32.985Z,3.87
2019-03-12T02:58:02.428Z,9.17
2019-03-12T03:00:31.948Z,4.80
2019-03-12T03:03:01.396Z,7.00
2019-03-12T03:05:32.579Z,7.67
2019-03-12T03:08:04.793Z,9.90
2019-03-12T03:10:34.371Z,9.53
2019-03-12T03:13:04.027Z,6.67
2019-03-12T03:15:38.378Z,9.77
2019-03-12T03:18:07.973Z,7.73
2019-03-12T03:20:37.406Z,7.03
2019-03-12T03:23:06.859Z,6.00
2019-03-12T03:25:36.414Z,11.23
2019-03-12T03:28:06.129Z,8.07
2019-03-12T03:30:35.534Z,9.83
2019-03-12T03:33:05.031Z,7.10
2019-03-12T03:35:34.558Z,4.83
2019-03-12T03:38:04.022Z,13.30
2019-03-12T03:40:33.373Z,13.23
2019-03-12T03:43:02.825Z,10.30
2019-03-12T03:45:32.299Z,7.60
2019-03-12T03:48:01.637Z,10.83
2019-03-12T03:50:31.061Z,9.47
2019-03-12T03:53:00.495Z,10.50
2019-03-12T03:55:30.021Z,12.67
2019-03-12T03:57:59.699Z,10.30
2019-03-12T04:00:29.003Z,6.83
2019-03-12T04:02:58.428Z,13.17
2019-03-12T04:05:27.748Z,12.13
2019-03-12T04:07:57.176Z,12.43
2019-03-12T04:10:26.564Z,14.00
2019-03-12T04:12:55.903Z,12.20
2019-03-12T04:15:25.381Z,8.73
2019-03-12T04:17:54.741Z,7.77
2019-03-12T04:20:24.049Z,6.47
2019-03-12T04:22:53.437Z,12.23
2019-03-12T04:25:22.916Z,9.90
2019-03-12T04:27:52.415Z,6.90
2019-03-12T04:30:21.761Z,9.53
2019-03-12T04:32:51.124Z,8.53
2019-03-12T04:35:20.879Z,10.50
2019-03-12T04:37:50.222Z,8.77
2019-03-12T04:40:19.571Z,17.73
2019-03-12T04:42:48.943Z,12.20
2019-03-12T04:45:18.399Z,4.97
2019-03-12T04:47:47.852Z,6.40
2019-03-12T04:50:17.412Z,8.40
2019-03-12T04:52:46.858Z,5.13
2019-03-12T04:55:16.411Z,11.10
2019-03-12T04:57:45.800Z,8.13
2019-03-12T05:00:16.529Z,9.60
2019-03-12T05:02:46.133Z,5.93
2019-03-12T05:05:15.586Z,13.43
2019-03-12T05:07:45.033Z,12.20
2019-03-12T05:10:14.614Z,9.10
2019-03-12T05:12:43.950Z,11.37
2019-03-12T05:15:14.161Z,14.07
2019-03-12T05:17:44.214Z,10.47
2019-03-12T05:20:14.523Z,12.20
2019-03-12T05:22:43.909Z,7.50
2019-03-12T05:25:13.682Z,12.50
2019-03-12T05:27:43.096Z,13.03
2019-03-12T05:30:15.088Z,6.70
2019-03-12T05:32:45.497Z,5.33
2019-03-12T05:35:15.067Z,12.17
2019-03-12T05:37:44.434Z,10.00
2019-03-12T05:40:14.594Z,13.07
2019-03-12T05:42:44.176Z,12.63
2019-03-12T05:45:14.194Z,5.03
2019-03-12T05:47:43.738Z,5.83
2019-03-12T05:50:13.177Z,14.53
2019-03-12T05:52:42.535Z,7.97
2019-03-12T05:55:12.283Z,9.53
2019-03-12T05:57:41.647Z,11.93
2019-03-12T06:00:13.134Z,14.43
2019-03-12T06:02:42.523Z,10.13
2019-03-12T06:05:11.864Z,14.20
2019-03-12T06:07:41.299Z,8.13
2019-03-12T06:10:11.475Z,7.90
2019-03-12T06:12:41.200Z,12.97
2019-03-12T06:15:11.139Z,14.20
2019-03-12T06:17:40.492Z,6.07
2019-03-12T06:20:10.077Z,12.30
2019-03-12T06:22:39.719Z,14.27
2019-03-12T06:25:09.099Z,6.90
2019-03-12T06:27:38.563Z,6.43
2019-03-12T06:30:09.547Z,6.87
2019-03-12T06:32:51.362Z,5.47
2019-03-12T06:35:43.330Z,7.27
2019-03-12T06:38:41.030Z,13.87
2019-03-12T06:41:17.955Z,12.87
2019-03-12T06:44:03.567Z,12.97
2019-03-12T06:46:50.838Z,4.83
2019-03-12T06:49:39.177Z,11.57
2019-03-12T06:52:16.363Z,5.60
2019-03-12T06:55:10.522Z,10.97
2019-03-12T06:58:18.115Z,6.40
2019-03-12T07:01:24.713Z,8.47
2019-03-12T07:04:21.841Z,7.07
2019-03-12T07:07:11.544Z,9.70
2019-03-12T07:09:50.480Z,7.53
2019-03-12T07:12:25.458Z,11.07
2019-03-12T07:15:19.755Z,10.17
2019-03-12T07:17:57.634Z,4.97
2019-03-12T07:20:45.971Z,8.17
2019-03-12T07:23:40.778Z,6.17
2019-03-12T07:26:15.974Z,8.83
2019-03-12T07:28:54.945Z,5.97
2019-03-12T07:31:46.238Z,10.13
2019-03-12T07:34:36.880Z,6.60
2019-03-12T07:37:24.237Z,3.03
2019-03-12T07:40:20.090Z,10.50
2019-03-12T07:43:04.818Z,6.07
2019-03-12T07:45:48.856Z,8.20
2019-03-12T07:48:37.232Z,9.47
2019-03-12T07:51:22.612Z,11.13
2019-03-12T07:54:10.007Z,7.37
2019-03-12T07:57:02.192Z,9.70
2019-03-12T07:59:51.716Z,6.27
2019-03-12T08:02:55.294Z,7.43
2019-03-12T08:05:55.817Z,8.57
2019-03-12T08:08:53.055Z,4.37
2019-03-12T08:11:50.615Z,4.50
2019-03-12T08:14:48.386Z,4.57
2019-03-12T08:17:39.832Z,5.77
2019-03-12T08:20:17.490Z,3.80
2019-03-12T08:23:14.898Z,4.90
2019-03-12T08:25:56.828Z,5.20
2019-03-12T08:28:41.602Z,2.83
2019-03-12T08:31:32.969Z,3.27
2019-03-12T08:34:39.518Z,3.90
2019-03-12T08:37:15.509Z,3.30
2019-03-12T08:40:09.324Z,1.93
2019-03-12T08:42:55.980Z,2.63
2019-03-12T08:45:45.469Z,4.90
2019-03-12T08:48:25.268Z,3.77
2019-03-12T08:51:13.099Z,2.70
2019-03-12T08:54:07.483Z,3.63
2019-03-12T08:57:01.682Z,6.33
2019-03-12T08:59:56.039Z,4.17
2019-03-12T09:02:43.271Z,2.93
2019-03-12T09:05:26.731Z,1.97
2019-03-12T09:08:30.363Z,4.90
2019-03-12T09:11:27.491Z,3.43
2019-03-12T09:14:15.884Z,3.27
2019-03-12T09:17:13.446Z,4.17
2019-03-12T09:20:00.858Z,4.20
2019-03-12T09:22:48.121Z,3.80
2019-03-12T09:25:37.732Z,2.17
2019-03-12T09:28:28.830Z,3.77
2019-03-12T09:31:08.942Z,2.20
2019-03-12T09:34:03.078Z,2.03
2019-03-12T09:36:54.288Z,3.10
2019-03-12T09:39:42.687Z,5.07
2019-03-12T09:42:38.606Z,3.30
2019-03-12T09:45:33.938Z,2.97
2019-03-12T09:48:34.268Z,2.53
2019-03-12T09:51:22.574Z,4.23
2019-03-12T09:54:05.197Z,2.93
2019-03-12T09:56:52.298Z,2.70
2019-03-12T09:59:28.849Z,1.80
2019-03-12T10:02:35.318Z,3.37
2019-03-12T10:05:23.422Z,2.43
2019-03-12T10:08:14.835Z,2.23
2019-03-12T10:11:09.130Z,1.60
2019-03-12T10:13:57.441Z,1.00
2019-03-12T10:16:45.476Z,2.07
2019-03-12T10:19:28.554Z,2.93
2019-03-12T10:22:16.914Z,1.90
2019-03-12T10:25:03.918Z,2.10
2019-03-12T10:27:58.266Z,1.70
2019-03-12T10:30:46.592Z,1.43
2019-03-12T10:33:34.902Z,1.40
2019-03-12T10:36:23.633Z,2.43
2019-03-12T10:39:55.227Z,2.00
2019-03-12T10:42:36.921Z,2.83
2019-03-12T10:45:25.642Z,2.23
2019-03-12T10:47:55.255Z,1.97
2019-03-12T10:50:24.683Z,2.70
2019-03-12T10:52:54.157Z,2.27
2019-03-12T10:55:24.508Z,3.20
2019-03-12T10:57:53.946Z,3.27
2019-03-12T11:00:23.262Z,2.40
2019-03-12T11:02:52.697Z,4.70
2019-03-12T11:05:22.337Z,2.90
2019-03-12T11:07:51.679Z,2.77
2019-03-12T11:10:21.123Z,3.60
2019-03-12T11:12:50.583Z,3.63
2019-03-12T11:15:20.039Z,2.60
2019-03-12T11:17:50.445Z,2.00
2019-03-12T11:20:20.166Z,3.13
2019-03-12T11:22:49.574Z,4.17
2019-03-12T11:25:27.216Z,3.03
2019-03-12T11:27:50.299Z,3.30
2019-03-12T11:30:19.714Z,1.27
2019-03-12T11:32:49.079Z,2.20
2019-03-12T11:35:18.603Z,2.87
2019-03-12T11:37:48.150Z,2.03
2019-03-12T11:40:19.065Z,2.07
2019-03-12T11:42:48.422Z,2.53
2019-03-12T11:45:19.942Z,2.47
2019-03-12T11:47:49.364Z,2.67
2019-03-12T11:50:20.510Z,2.97
2019-03-12T11:52:55.539Z,3.20
2019-03-12T11:55:21.328Z,2.50
2019-03-12T11:57:50.860Z,1.90
2019-03-12T12:00:28.368Z,1.60
2019-03-12T12:03:00.175Z,3.50
2019-03-12T12:05:29.233Z,2.83
2019-03-12T12:07:58.779Z,1.40
2019-03-12T12:10:28.147Z,2.00
2019-03-12T12:12:57.575Z,1.80
2019-03-12T12:15:27.066Z,2.40
2019-03-12T12:17:56.427Z,1.60
2019-03-12T12:20:30.161Z,1.87
2019-03-12T12:22:56.929Z,1.77
2019-03-12T12:25:26.398Z,2.10
2019-03-12T12:27:55.786Z,1.30
2019-03-12T12:30:25.487Z,2.00
2019-03-12T12:32:54.934Z,2.67
2019-03-12T12:35:24.311Z,2.77
2019-03-12T12:37:53.926Z,0.93
2019-03-12T12:40:23.654Z,1.97
2019-03-12T12:42:53.063Z,2.17
2019-03-12T12:45:23.745Z,1.80
2019-03-12T12:47:53.079Z,1.47
2019-03-12T12:50:22.509Z,2.73
2019-03-12T12:52:51.951Z,1.20
2019-03-12T12:55:21.251Z,1.73
2019-03-12T12:57:50.594Z,3.00
2019-03-12T13:00:20.593Z,1.53
2019-03-12T13:02:50.028Z,1.87
2019-03-12T13:05:19.607Z,2.17
2019-03-12T13:07:48.971Z,2.07
2019-03-12T13:10:23.030Z,2.53
2019-03-12T13:12:52.382Z,3.30
2019-03-12T13:15:22.143Z,2.03
2019-03-12T13:17:51.598Z,1.77
2019-03-12T13:20:21.070Z,4.40
2019-03-12T13:22:50.440Z,2.93
2019-03-12T13:25:20.144Z,1.90
2019-03-12T13:27:52.044Z,1.67
2019-03-12T13:30:24.158Z,3.50
2019-03-12T13:32:56.297Z,3.27
2019-03-12T13:35:25.719Z,2.50
2019-03-12T13:37:55.051Z,1.47
2019-03-12T13:40:25.152Z,3.00
2019-03-12T13:42:54.693Z,2.83
2019-03-12T13:45:24.670Z,2.90
2019-03-12T13:47:54.079Z,2.80
2019-03-12T13:50:23.474Z,3.20
2019-03-12T13:52:52.904Z,3.27
2019-03-12T13:55:22.254Z,3.77
2019-03-12T13:57:52.084Z,3.50
2019-03-12T14:00:21.694Z,2.90
2019-03-12T14:02:51.411Z,2.60
2019-03-12T14:05:20.869Z,2.23
2019-03-12T14:07:50.301Z,3.13
2019-03-12T14:10:21.187Z,4.50
2019-03-12T14:12:51.288Z,3.77
2019-03-12T14:15:29.082Z,4.67
2019-03-12T14:17:58.884Z,4.17
2019-03-12T14:20:40.289Z,2.67
2019-03-12T14:23:10.235Z,3.87
2019-03-12T14:25:39.553Z,4.30
2019-03-12T14:28:09.099Z,4.43
2019-03-12T14:30:38.659Z,5.43
2019-03-12T14:33:08.019Z,2.83
2019-03-12T14:35:50.435Z,3.70
2019-03-12T14:38:08.776Z,3.93
2019-03-12T14:40:38.407Z,1.63
2019-03-12T14:43:07.845Z,3.70
2019-03-12T14:45:39.079Z,2.30
2019-03-12T14:48:29.811Z,3.40
2019-03-12T14:50:59.224Z,2.93
2019-03-12T14:53:28.574Z,4.80
2019-03-12T14:55:58.026Z,2.93
2019-03-12T14:58:27.434Z,4.20
2019-03-12T15:00:56.779Z,4.87
2019-03-12T15:03:26.126Z,5.93
2019-03-12T15:05:55.604Z,5.93
2019-03-12T15:08:25.085Z,6.60
2019-03-12T15:10:54.503Z,6.80
2019-03-12T15:13:23.978Z,4.03
2019-03-12T15:15:53.340Z,6.50
2019-03-12T15:18:22.754Z,6.50
2019-03-12T15:20:52.083Z,5.20
2019-03-12T15:23:21.422Z,7.63
2019-03-12T15:25:50.866Z,6.50
2019-03-12T15:28:20.197Z,5.17
2019-03-12T15:30:49.554Z,3.50
2019-03-12T15:33:18.882Z,5.00
2019-03-12T15:35:48.241Z,7.10
2019-03-12T15:38:17.593Z,7.00
2019-03-12T15:40:46.932Z,8.77
2019-03-12T15:43:16.340Z,12.17
2019-03-12T15:45:45.931Z,6.87
2019-03-12T15:48:15.338Z,9.37
2019-03-12T15:50:44.783Z,6.40
2019-03-12T15:53:14.202Z,6.73
2019-03-12T15:55:43.513Z,6.33
2019-03-12T15:58:12.842Z,6.70
2019-03-12T16:00:42.333Z,6.77
2019-03-12T16:03:11.922Z,7.67
2019-03-12T16:05:41.295Z,7.73
2019-03-12T16:08:10.669Z,6.87
2019-03-12T16:10:40.099Z,7.67
2019-03-12T16:13:09.834Z,7.60
2019-03-12T16:15:39.213Z,6.80
2019-03-12T16:18:08.819Z,8.73
2019-03-12T16:20:38.242Z,7.20
2019-03-12T16:23:07.770Z,8.37
2019-03-12T16:25:37.149Z,9.43
2019-03-12T16:28:06.523Z,9.57
2019-03-12T16:30:36.107Z,9.23
2019-03-12T16:33:05.517Z,8.63
2019-03-12T16:35:35.146Z,8.73
2019-03-12T16:38:06.887Z,8.83
2019-03-12T16:40:35.710Z,9.63
2019-03-12T16:43:05.214Z,8.27
2019-03-12T16:45:34.774Z,7.73
2019-03-12T16:48:04.226Z,7.87
2019-03-12T16:50:33.578Z,8.50
2019-03-12T16:53:02.956Z,8.93
2019-03-12T16:55:32.393Z,6.20
2019-03-12T16:58:01.756Z,7.87
2019-03-12T17:00:31.559Z,10.37
2019-03-12T17:03:01.191Z,9.17
2019-03-12T17:05:30.648Z,8.13
2019-03-12T17:08:00.165Z,9.03
2019-03-12T17:10:29.878Z,5.90
2019-03-12T17:12:59.389Z,7.40
2019-03-12T17:15:29.103Z,8.93
2019-03-12T17:17:58.585Z,10.33
2019-03-12T17:20:27.998Z,8.33
2019-03-12T17:22:57.456Z,9.10
2019-03-12T17:25:26.885Z,7.63
2019-03-12T17:27:56.359Z,9.90
2019-03-12T17:30:25.807Z,6.70
2019-03-12T17:32:55.438Z,9.20
2019-03-12T17:35:25.946Z,7.33
2019-03-12T17:37:55.480Z,6.80
2019-03-12T17:40:24.942Z,8.27
2019-03-12T17:42:54.688Z,7.03
2019-03-12T17:45:24.092Z,5.63
2019-03-12T17:47:53.488Z,6.83
2019-03-12T17:50:23.173Z,7.33
2019-03-12T17:52:52.638Z,7.20
2019-03-12T17:55:22.015Z,5.60
2019-03-12T17:57:51.615Z,8.87
2019-03-12T18:00:22.152Z,8.97
2019-03-12T18:02:51.810Z,8.17
2019-03-12T18:05:21.572Z,8.27
2019-03-12T18:07:51.034Z,9.10
2019-03-12T18:10:20.829Z,5.77
2019-03-12T18:12:50.885Z,7.70
2019-03-12T18:15:20.514Z,9.47
2019-03-12T18:17:50.030Z,8.63
2019-03-12T18:20:19.979Z,7.60
2019-03-12T18:22:49.557Z,8.90
2019-03-12T18:25:21.806Z,6.27
2019-03-12T18:27:51.357Z,6.20
2019-03-12T18:30:20.811Z,7.63
2019-03-12T18:32:50.339Z,4.83
2019-03-12T18:35:20.195Z,9.40
2019-03-12T18:37:49.696Z,8.83
2019-03-12T18:40:19.849Z,10.03
2019-03-12T18:42:49.841Z,11.27
2019-03-12T18:45:21.102Z,10.03
2019-03-12T18:47:50.590Z,11.20
2019-03-12T18:50:20.454Z,13.77
2019-03-12T18:52:49.899Z,10.00
2019-03-12T18:55:42.974Z,10.60
2019-03-12T18:58:12.866Z,11.90
2019-03-12T19:00:43.046Z,16.43
2019-03-12T19:03:12.421Z,14.10
2019-03-12T19:05:41.891Z,16.33
2019-03-12T19:08:11.470Z,13.17
2019-03-12T19:10:41.350Z,14.27
2019-03-12T19:13:10.805Z,12.47
2019-03-12T19:15:40.433Z,14.03
2019-03-12T19:18:09.910Z,12.03
2019-03-12T19:20:39.587Z,12.23
2019-03-12T19:23:09.190Z,14.13
2019-03-12T19:25:38.940Z,16.00
2019-03-12T19:28:08.495Z,15.77
2019-03-12T19:30:38.381Z,15.93
2019-03-12T19:33:10.607Z,15.10
2019-03-12T19:35:40.789Z,11.33
2019-03-12T19:38:11.146Z,15.87
2019-03-12T19:40:41.666Z,16.10
2019-03-12T19:43:12.774Z,13.53
2019-03-12T19:45:43.095Z,16.07
2019-03-12T19:48:13.584Z,11.60
2019-03-12T19:50:43.907Z,17.93
2019-03-12T19:53:14.047Z,16.90
2019-03-12T19:55:45.149Z,14.13
2019-03-12T19:58:15.429Z,19.20
2019-03-12T20:00:46.528Z,18.97
2019-03-12T20:03:16.117Z,18.57
2019-03-12T20:05:45.542Z,19.40
2019-03-12T20:08:15.334Z,17.63
2019-03-12T20:11:47.768Z,18.10
2019-03-12T20:14:53.255Z,20.27
2019-03-12T20:17:51.785Z,24.60
2019-03-12T20:20:58.831Z,19.00
2019-03-12T20:24:07.855Z,19.73
2019-03-12T20:27:27.630Z,20.67
2019-03-12T20:30:46.179Z,20.97
2019-03-12T20:34:01.356Z,18.40
2019-03-12T20:37:10.655Z,17.33
2019-03-12T20:40:21.406Z,21.63
2019-03-12T20:43:40.175Z,21.67
2019-03-12T20:46:48.767Z,23.37
2019-03-12T20:50:02.818Z,21.77
2019-03-12T20:53:29.206Z,16.67
2019-03-12T20:56:29.526Z,15.73
2019-03-12T20:59:45.001Z,20.60
2019-03-12T21:03:01.393Z,24.50
2019-03-12T21:06:10.837Z,28.50
2019-03-12T21:09:42.311Z,19.87
2019-03-12T21:12:40.938Z,25.37
2019-03-12T21:16:00.859Z,22.17
2019-03-12T21:19:24.285Z,25.33
2019-03-12T21:22:55.843Z,24.87
2019-03-12T21:25:52.324Z,21.47
2019-03-12T21:28:49.412Z,25.10
2019-03-12T21:31:18.861Z,20.47
2019-03-12T21:33:48.582Z,22.33
2019-03-12T21:36:17.966Z,19.53
2019-03-12T21:38:47.321Z,22.70
2019-03-12T21:41:16.676Z,28.27
2019-03-12T21:43:46.046Z,24.37
2019-03-12T21:46:15.377Z,37.23
2019-03-12T21:48:44.690Z,33.50
2019-03-12T21:51:14.121Z,27.63
2019-03-12T21:53:43.480Z,28.30
2019-03-12T21:56:12.963Z,29.43
2019-03-12T21:58:42.273Z,28.27
2019-03-12T22:01:11.633Z,28.40
2019-03-12T22:03:41.096Z,25.57
2019-03-12T22:06:10.502Z,25.27
2019-03-12T22:08:39.952Z,24.33
2019-03-12T22:11:09.506Z,24.63
2019-03-12T22:13:38.991Z,20.77
2019-03-12T22:16:08.418Z,23.93
2019-03-12T22:18:37.862Z,27.03
2019-03-12T22:21:07.310Z,25.77
2019-03-12T22:23:42.876Z,23.40
2019-03-12T22:26:12.264Z,22.97
2019-03-12T22:28:41.598Z,28.03
2019-03-12T22:31:10.958Z,26.03
2019-03-12T22:33:40.472Z,22.80
2019-03-12T22:36:09.866Z,23.30
2019-03-12T22:38:39.203Z,25.07
2019-03-12T22:41:08.571Z,28.03
2019-03-12T22:43:37.930Z,25.57
2019-03-12T22:46:07.319Z,23.13
2019-03-12T22:48:36.674Z,21.20
2019-03-12T22:51:06.230Z,19.53
2019-03-12T22:53:35.743Z,23.40
2019-03-12T22:56:05.102Z,19.63
2019-03-12T22:58:34.487Z,19.03
2019-03-12T23:01:04.126Z,15.43
2019-03-12T23:03:33.581Z,21.73
2019-03-12T23:06:03.129Z,19.07
2019-03-12T23:08:32.654Z,15.00
2019-03-12T23:11:02.133Z,15.60
2019-03-12T23:13:31.530Z,19.60
2019-03-12T23:16:00.979Z,13.87
2019-03-12T23:18:30.372Z,15.23
2019-03-12T23:20:59.820Z,14.97
2019-03-12T23:23:29.396Z,15.17
2019-03-12T23:25:58.826Z,20.80
2019-03-12T23:28:28.180Z,20.67
2019-03-12T23:30:57.688Z,18.63
2019-03-12T23:33:27.201Z,15.03
2019-03-12T23:35:56.818Z,20.37
2019-03-12T23:38:26.317Z,19.10
2019-03-12T23:40:55.745Z,19.37
2019-03-12T23:43:25.425Z,14.20
2019-03-12T23:45:54.865Z,17.23
2019-03-12T23:48:24.229Z,20.00
2019-03-12T23:50:53.585Z,16.00
2019-03-12T23:53:23.041Z,18.90
2019-03-12T23:55:52.488Z,18.33
2019-03-12T23:58:23.024Z,21.87
